createdAt,value
2018-06-12T00:00:10.008Z,94.59
2018-06-12T00:01:10.007Z,94.69
2018-06-12T00:02:10.008Z,94.31
2018-06-12T00:03:10.012Z,94.83
2018-06-12T00:04:10.015Z,94.54
2018-06-12T00:05:10.020Z,94.11
2018-06-12T00:06:10.024Z,94.01
2018-06-12T00:07:10.028Z,93.92
2018-06-12T00:08:10.028Z,94.07
2018-06-12T00:09:10.030Z,94.45
2018-06-12T00:10:10.035Z,94.45
2018-06-12T00:11:10.036Z,94.35
2018-06-12T00:12:10.041Z,94.45
2018-06-12T00:13:10.042Z,94.64
2018-06-12T00:14:10.044Z,94.54
2018-06-12T00:15:10.048Z,94.07
2018-06-12T00:16:10.050Z,95.12
2018-06-12T00:17:10.053Z,94.26
2018-06-12T00:18:10.057Z,95.12
2018-06-12T00:19:10.060Z,94.64
2018-06-12T00:20:10.062Z,94.45
2018-06-12T00:21:10.065Z,94.35
2018-06-12T00:22:10.066Z,94.35
2018-06-12T00:23:10.070Z,94.93
2018-06-12T00:24:10.074Z,95.03
2018-06-12T00:25:10.078Z,95.12
2018-06-12T00:26:10.084Z,94.54
2018-06-12T00:27:10.083Z,95.12
2018-06-12T00:28:10.085Z,94.64
2018-06-12T00:29:10.089Z,94.93
2018-06-12T00:30:10.090Z,94.26
2018-06-12T00:31:10.094Z,94.26
2018-06-12T00:32:10.097Z,94.45
2018-06-12T00:33:10.100Z,94.35
2018-06-12T00:34:10.101Z,94.54
2018-06-12T00:35:10.104Z,94.35
2018-06-12T00:36:10.108Z,94.07
2018-06-12T00:38:10.113Z,94.35
2018-06-12T00:39:10.116Z,94.88
2018-06-12T00:40:10.118Z,94.59
2018-06-12T00:41:10.121Z,95.12
2018-06-12T00:42:10.123Z,95.03
2018-06-12T00:43:10.126Z,94.88
2018-06-12T00:44:10.130Z,94.54
2018-06-12T00:45:10.133Z,94.88
2018-06-12T00:46:10.136Z,94.74
2018-06-12T00:47:10.137Z,94.93
2018-06-12T00:48:10.155Z,94.93
2018-06-12T00:49:10.143Z,95.21
2018-06-12T00:50:10.145Z,95.17
2018-06-12T00:51:10.148Z,95.03
2018-06-12T00:52:10.151Z,94.16
2018-06-12T00:53:10.153Z,94.93
2018-06-12T00:54:10.157Z,95.12
2018-06-12T00:55:10.158Z,94.54
2018-06-12T00:56:10.162Z,94.88
2018-06-12T00:57:10.164Z,94.74
2018-06-12T00:58:10.166Z,94.74
2018-06-12T00:59:10.171Z,95.03
2018-06-12T01:00:10.177Z,94.93
2018-06-12T01:01:10.176Z,94.83
2018-06-12T01:02:10.176Z,94.74
2018-06-12T01:03:10.181Z,94.74
2018-06-12T01:04:10.183Z,94.93
2018-06-12T01:05:10.187Z,94.93
2018-06-12T01:06:10.188Z,94.74
2018-06-12T01:07:10.190Z,94.83
2018-06-12T01:08:10.194Z,94.74
2018-06-12T01:09:10.198Z,94.74
2018-06-12T01:10:10.198Z,94.93
2018-06-12T01:11:10.202Z,94.93
2018-06-12T01:12:10.205Z,94.74
2018-06-12T01:13:10.209Z,94.74
2018-06-12T01:14:10.210Z,95.03
2018-06-12T01:15:10.212Z,94.93
2018-06-12T01:16:10.215Z,94.74
2018-06-12T01:17:10.218Z,95.21
2018-06-12T01:18:10.220Z,95.12
2018-06-12T01:19:10.224Z,95.03
2018-06-12T01:20:10.226Z,95.12
2018-06-12T01:21:10.229Z,94.74
2018-06-12T01:22:10.231Z,95.03
2018-06-12T01:23:10.239Z,94.54
2018-06-12T01:24:10.238Z,94.83
2018-06-12T01:25:10.240Z,94.83
2018-06-12T01:26:10.244Z,94.93
2018-06-12T01:27:10.244Z,95.12
2018-06-12T01:28:10.249Z,94.64
2018-06-12T01:29:10.254Z,94.79
2018-06-12T01:30:10.257Z,94.59
2018-06-12T01:31:10.256Z,94.79
2018-06-12T01:32:10.259Z,94.88
2018-06-12T01:33:10.264Z,95.26
2018-06-12T01:34:10.266Z,95.17
2018-06-12T01:35:10.267Z,95.17
2018-06-12T01:36:10.271Z,94.59
2018-06-12T01:37:10.273Z,95.07
2018-06-12T01:38:10.275Z,94.79
2018-06-12T01:39:10.278Z,95.26
2018-06-12T01:40:10.281Z,95.17
2018-06-12T01:41:10.285Z,94.88
2018-06-12T01:42:10.286Z,94.69
2018-06-12T01:43:10.291Z,94.98
2018-06-12T01:44:10.292Z,94.49
2018-06-12T01:45:10.295Z,94.98
2018-06-12T01:46:10.296Z,94.98
2018-06-12T01:47:10.299Z,94.79
2018-06-12T01:48:10.306Z,94.98
2018-06-12T01:49:10.305Z,94.98
2018-06-12T01:50:10.307Z,94.98
2018-06-12T01:51:10.313Z,94.79
2018-06-12T01:52:10.313Z,94.98
2018-06-12T01:53:10.315Z,95.65
2018-06-12T01:54:10.316Z,95.55
2018-06-12T01:55:10.320Z,95.55
2018-06-12T01:56:10.321Z,95.65
2018-06-12T01:57:10.325Z,95.84
2018-06-12T01:58:10.326Z,95.07
2018-06-12T01:59:10.329Z,95.55
2018-06-12T02:00:10.332Z,95.26
2018-06-12T02:01:10.340Z,95.75
2018-06-12T02:02:10.337Z,94.98
2018-06-12T02:03:10.340Z,95.55
2018-06-12T02:04:10.341Z,95.36
2018-06-12T02:05:10.344Z,95.65
2018-06-12T02:06:10.345Z,95.46
2018-06-12T02:07:10.349Z,95.17
2018-06-12T02:08:10.351Z,95.46
2018-06-12T02:09:10.354Z,95.65
2018-06-12T02:10:10.355Z,94.88
2018-06-12T02:11:10.358Z,95.17
2018-06-12T02:12:10.361Z,94.98
2018-06-12T02:13:10.364Z,94.98
2018-06-12T02:14:10.367Z,94.98
2018-06-12T02:15:10.373Z,94.79
2018-06-12T02:16:10.372Z,94.88
2018-06-12T02:17:10.376Z,94.98
2018-06-12T02:18:10.377Z,95.17
2018-06-12T02:19:10.379Z,95.12
2018-06-12T02:20:10.383Z,94.98
2018-06-12T02:21:10.384Z,95.12
2018-06-12T02:22:10.386Z,95.21
2018-06-12T02:23:10.389Z,94.98
2018-06-12T02:24:10.393Z,94.59
2018-06-12T02:25:10.395Z,94.74
2018-06-12T02:26:10.397Z,94.93
2018-06-12T02:27:10.402Z,95.21
2018-06-12T02:28:10.403Z,95.03
2018-06-12T02:29:10.405Z,94.98
2018-06-12T02:30:10.408Z,95.12
2018-06-12T02:31:10.414Z,94.93
2018-06-12T02:32:10.413Z,95.21
2018-06-12T02:33:10.416Z,94.98
2018-06-12T02:34:10.420Z,94.98
2018-06-12T02:35:10.420Z,95.03
2018-06-12T02:36:10.424Z,94.93
2018-06-12T02:37:10.427Z,95.12
2018-06-12T02:38:10.429Z,95.03
2018-06-12T02:39:10.431Z,95.12
2018-06-12T02:40:10.434Z,94.64
2018-06-12T02:41:10.441Z,95.21
2018-06-12T02:42:10.439Z,95.03
2018-06-12T02:43:10.440Z,95.03
2018-06-12T02:44:10.445Z,95.12
2018-06-12T02:45:10.447Z,95.31
2018-06-12T02:46:10.449Z,94.83
2018-06-12T02:47:10.452Z,94.83
2018-06-12T02:48:10.455Z,95.50
2018-06-12T02:49:10.467Z,95.12
2018-06-12T02:50:10.459Z,94.93
2018-06-12T02:51:10.463Z,94.83
2018-06-12T02:52:10.466Z,95.03
2018-06-12T02:53:10.468Z,94.83
2018-06-12T02:54:10.471Z,94.93
2018-06-12T02:55:10.476Z,95.21
2018-06-12T02:56:10.482Z,94.83
2018-06-12T02:57:10.485Z,95.50
2018-06-12T02:58:10.483Z,94.93
2018-06-12T02:59:10.486Z,95.21
2018-06-12T03:00:10.488Z,94.64
2018-06-12T03:01:10.491Z,94.83
2018-06-12T03:02:10.492Z,94.83
2018-06-12T03:03:10.495Z,94.93
2018-06-12T03:04:10.501Z,95.79
2018-06-12T03:05:10.500Z,94.98
2018-06-12T03:06:10.502Z,94.98
2018-06-12T03:07:10.505Z,95.07
2018-06-12T03:08:10.508Z,94.98
2018-06-12T03:09:10.514Z,95.46
2018-06-12T03:10:10.512Z,95.07
2018-06-12T03:11:10.516Z,95.55
2018-06-12T03:12:10.518Z,95.41
2018-06-12T03:13:10.520Z,95.41
2018-06-12T03:14:10.523Z,95.12
2018-06-12T03:15:10.525Z,95.21
2018-06-12T03:16:10.527Z,95.41
2018-06-12T03:17:10.531Z,95.21
2018-06-12T03:18:10.531Z,94.98
2018-06-12T03:19:10.540Z,94.79
2018-06-12T03:20:10.537Z,94.98
2018-06-12T03:21:10.539Z,94.69
2018-06-12T03:22:10.543Z,94.98
2018-06-12T03:23:10.556Z,95.46
2018-06-12T03:24:10.544Z,95.26
2018-06-12T03:25:10.547Z,94.98
2018-06-12T03:26:10.548Z,94.89
2018-06-12T03:27:10.551Z,94.89
2018-06-12T03:28:10.553Z,95.03
2018-06-12T03:29:10.555Z,95.03
2018-06-12T03:30:10.556Z,94.74
2018-06-12T03:31:10.560Z,95.03
2018-06-12T03:32:10.560Z,94.93
2018-06-12T03:33:10.564Z,95.03
2018-06-12T03:34:10.565Z,95.03
2018-06-12T03:35:10.568Z,95.03
2018-06-12T03:36:10.569Z,95.12
2018-06-12T03:37:10.573Z,95.12
2018-06-12T03:38:10.573Z,95.07
2018-06-12T03:39:10.576Z,95.17
2018-06-12T03:40:10.577Z,95.31
2018-06-12T03:41:10.581Z,94.93
2018-06-12T03:42:10.584Z,95.41
2018-06-12T03:43:10.585Z,95.03
2018-06-12T03:44:10.591Z,95.21
2018-06-12T03:45:10.589Z,95.41
2018-06-12T03:46:10.596Z,95.21
2018-06-12T03:47:10.594Z,95.21
2018-06-12T03:48:10.595Z,95.12
2018-06-12T03:49:10.600Z,95.21
2018-06-12T03:50:10.601Z,95.21
2018-06-12T03:51:10.605Z,94.84
2018-06-12T03:52:10.604Z,95.03
2018-06-12T03:53:10.609Z,94.93
2018-06-12T03:54:10.610Z,95.03
2018-06-12T03:55:10.616Z,95.03
2018-06-12T03:56:10.614Z,95.17
2018-06-12T03:57:10.618Z,95.21
2018-06-12T03:58:10.617Z,95.21
2018-06-12T03:59:10.620Z,95.36
2018-06-12T04:00:10.623Z,95.17
2018-06-12T04:01:10.627Z,95.17
2018-06-12T04:02:10.627Z,95.26
2018-06-12T04:03:10.629Z,95.36
2018-06-12T04:04:10.632Z,95.17
2018-06-12T04:05:10.634Z,94.49
2018-06-12T04:06:10.636Z,95.17
2018-06-12T04:07:10.639Z,95.36
2018-06-12T04:08:10.640Z,95.26
2018-06-12T04:09:10.643Z,94.59
2018-06-12T04:10:10.645Z,95.36
2018-06-12T04:11:10.691Z,94.79
2018-06-12T04:12:10.650Z,94.79
2018-06-12T04:13:10.654Z,94.98
2018-06-12T04:14:10.655Z,95.17
2018-06-12T04:15:10.657Z,95.36
2018-06-12T04:16:10.660Z,94.69
2018-06-12T04:17:10.664Z,95.36
2018-06-12T04:18:10.662Z,95.07
2018-06-12T04:19:10.667Z,95.46
2018-06-12T04:20:10.668Z,95.36
2018-06-12T04:21:10.672Z,95.17
2018-06-12T04:22:10.672Z,95.55
2018-06-12T04:23:10.675Z,95.26
2018-06-12T04:24:10.678Z,95.26
2018-06-12T04:25:10.680Z,95.36
2018-06-12T04:26:10.684Z,95.55
2018-06-12T04:27:10.685Z,95.07
2018-06-12T04:28:10.687Z,95.65
2018-06-12T04:29:10.691Z,95.03
2018-06-12T04:30:10.691Z,95.26
2018-06-12T04:31:10.694Z,95.17
2018-06-12T04:32:10.696Z,95.07
2018-06-12T04:33:10.700Z,94.98
2018-06-12T04:34:10.700Z,94.98
2018-06-12T04:35:10.703Z,95.07
2018-06-12T04:36:10.704Z,95.46
2018-06-12T04:37:10.708Z,95.26
2018-06-12T04:38:10.709Z,95.46
2018-06-12T04:39:10.711Z,95.07
2018-06-12T04:40:10.714Z,95.26
2018-06-12T04:41:10.717Z,95.46
2018-06-12T04:42:10.717Z,95.65
2018-06-12T04:43:10.720Z,95.55
2018-06-12T04:44:10.723Z,95.17
2018-06-12T04:45:10.727Z,95.65
2018-06-12T04:46:10.729Z,95.26
2018-06-12T04:47:10.730Z,95.36
2018-06-12T04:48:10.733Z,94.98
2018-06-12T04:49:10.741Z,95.60
2018-06-12T04:50:10.737Z,95.26
2018-06-12T04:51:10.740Z,95.65
2018-06-12T04:52:10.743Z,95.12
2018-06-12T04:53:10.746Z,95.03
2018-06-12T04:54:10.747Z,95.89
2018-06-12T04:55:10.751Z,95.89
2018-06-12T04:56:10.753Z,95.12
2018-06-12T04:57:10.757Z,95.60
2018-06-12T04:58:10.763Z,95.89
2018-06-12T04:59:10.760Z,95.70
2018-06-12T05:00:10.763Z,95.12
2018-06-12T05:01:10.770Z,94.93
2018-06-12T05:02:10.768Z,95.03
2018-06-12T05:03:10.771Z,94.83
2018-06-12T05:04:10.828Z,94.98
2018-06-12T05:05:10.777Z,94.93
2018-06-12T05:06:10.778Z,95.03
2018-06-12T05:07:10.782Z,94.83
2018-06-12T05:08:10.785Z,94.83
2018-06-12T05:09:10.791Z,95.03
2018-06-12T05:10:10.789Z,95.03
2018-06-12T05:11:10.793Z,94.93
2018-06-12T05:12:10.795Z,95.07
2018-06-12T05:13:10.799Z,94.93
2018-06-12T05:14:10.805Z,94.88
2018-06-12T05:15:10.804Z,94.93
2018-06-12T05:16:10.813Z,95.12
2018-06-12T05:17:10.810Z,94.98
2018-06-12T05:18:10.811Z,95.26
2018-06-12T05:19:10.815Z,95.17
2018-06-12T05:20:10.818Z,95.17
2018-06-12T05:21:10.822Z,94.98
2018-06-12T05:22:10.824Z,95.17
2018-06-12T05:23:10.826Z,94.69
2018-06-12T05:24:10.828Z,94.98
2018-06-12T05:25:10.836Z,94.98
2018-06-12T05:26:10.835Z,95.07
2018-06-12T05:27:10.841Z,95.17
2018-06-12T05:28:10.840Z,94.98
2018-06-12T05:29:10.844Z,95.07
2018-06-12T05:30:10.846Z,95.26
2018-06-12T05:31:10.848Z,94.98
2018-06-12T05:32:10.851Z,95.26
2018-06-12T05:33:10.854Z,95.07
2018-06-12T05:34:10.858Z,95.17
2018-06-12T05:35:10.863Z,95.07
2018-06-12T05:36:10.863Z,94.40
2018-06-12T05:37:10.867Z,95.17
2018-06-12T05:38:10.869Z,95.21
2018-06-12T05:39:10.873Z,95.12
2018-06-12T05:40:10.875Z,95.12
2018-06-12T05:41:10.879Z,94.54
2018-06-12T05:42:10.881Z,94.35
2018-06-12T05:43:10.884Z,94.45
2018-06-12T05:44:10.888Z,94.45
2018-06-12T05:45:10.892Z,94.83
2018-06-12T05:46:10.894Z,95.31
2018-06-12T05:47:10.897Z,94.45
2018-06-12T05:48:10.900Z,94.49
2018-06-12T05:49:10.904Z,94.68
2018-06-12T05:50:10.906Z,94.73
2018-06-12T05:51:10.909Z,94.35
2018-06-12T05:52:10.913Z,94.26
2018-06-12T05:53:10.916Z,94.45
2018-06-12T05:54:10.919Z,94.59
2018-06-12T05:55:10.923Z,94.68
2018-06-12T05:56:10.925Z,94.30
2018-06-12T05:57:10.931Z,95.07
2018-06-12T05:58:10.932Z,94.49
2018-06-12T05:59:10.936Z,94.30
2018-06-12T06:00:10.938Z,94.59
2018-06-12T06:01:10.974Z,94.98
2018-06-12T06:02:10.944Z,94.40
2018-06-12T06:03:10.952Z,94.78
2018-06-12T06:04:10.952Z,94.59
2018-06-12T06:05:10.957Z,94.21
2018-06-12T06:06:10.959Z,94.64
2018-06-12T06:07:10.963Z,94.54
2018-06-12T06:08:10.967Z,94.64
2018-06-12T06:09:10.994Z,94.64
2018-06-12T06:10:11.236Z,94.64
2018-06-12T06:11:10.982Z,94.73
2018-06-12T06:12:10.981Z,94.64
2018-06-12T06:13:10.987Z,94.64
2018-06-12T06:14:10.989Z,94.78
2018-06-12T06:15:10.992Z,94.59
2018-06-12T06:16:10.997Z,94.15
2018-06-12T06:17:11.002Z,94.45
2018-06-12T06:18:11.008Z,94.15
2018-06-12T06:19:11.009Z,94.64
2018-06-12T06:20:11.012Z,93.87
2018-06-12T06:21:11.020Z,93.68
2018-06-12T06:22:11.021Z,94.73
2018-06-12T06:23:11.027Z,94.73
2018-06-12T06:24:11.031Z,94.45
2018-06-12T06:25:11.033Z,94.54
2018-06-12T06:26:11.036Z,93.68
2018-06-12T06:27:11.040Z,94.35
2018-06-12T06:28:11.044Z,93.96
2018-06-12T06:29:11.047Z,94.68
2018-06-12T06:30:11.051Z,93.68
2018-06-12T06:31:11.054Z,94.25
2018-06-12T06:32:11.058Z,94.49
2018-06-12T06:33:11.064Z,94.59
2018-06-12T06:34:11.066Z,94.49
2018-06-12T06:35:11.069Z,94.49
2018-06-12T06:36:11.090Z,93.91
2018-06-12T06:37:11.079Z,94.40
2018-06-12T06:38:11.082Z,93.91
2018-06-12T06:39:11.087Z,93.77
2018-06-12T06:40:11.090Z,94.15
2018-06-12T06:41:11.094Z,93.96
2018-06-12T06:42:11.098Z,93.57
2018-06-12T06:43:11.104Z,93.67
2018-06-12T06:44:11.108Z,93.67
2018-06-12T06:45:11.112Z,94.06
2018-06-12T06:46:11.115Z,93.96
2018-06-12T06:47:11.119Z,94.25
2018-06-12T06:48:11.124Z,93.38
2018-06-12T06:49:11.128Z,93.57
2018-06-12T06:50:11.132Z,93.67
2018-06-12T06:51:11.136Z,93.77
2018-06-12T06:52:11.142Z,93.48
2018-06-12T06:53:11.146Z,94.15
2018-06-12T06:54:11.149Z,94.34
2018-06-12T06:55:11.155Z,92.85
2018-06-12T06:56:11.160Z,93.43
2018-06-12T06:57:11.164Z,93.68
2018-06-12T06:58:11.167Z,93.72
2018-06-12T06:59:11.174Z,93.91
2018-06-12T07:00:11.178Z,94.15
2018-06-12T07:01:11.182Z,93.82
2018-06-12T07:02:11.185Z,93.91
2018-06-12T07:03:11.189Z,94.01
2018-06-12T07:04:11.195Z,93.82
2018-06-12T07:05:11.200Z,94.45
2018-06-12T07:06:11.203Z,94.73
2018-06-12T07:07:11.206Z,94.45
2018-06-12T07:08:11.212Z,94.54
2018-06-12T07:09:11.287Z,94.73
2018-06-12T07:10:11.218Z,94.73
2018-06-12T07:11:11.223Z,94.54
2018-06-12T07:12:11.230Z,94.25
2018-06-12T07:13:11.232Z,94.45
2018-06-12T07:14:11.243Z,94.25
2018-06-12T07:15:11.244Z,94.92
2018-06-12T07:16:11.249Z,94.54
2018-06-12T07:17:11.248Z,94.35
2018-06-12T07:18:11.254Z,93.91
2018-06-12T07:19:11.257Z,94.06
2018-06-12T07:20:11.263Z,94.01
2018-06-12T07:21:11.265Z,93.87
2018-06-12T07:22:11.268Z,93.87
2018-06-12T07:23:11.272Z,93.68
2018-06-12T07:24:11.454Z,93.96
2018-06-12T07:25:11.282Z,94.45
2018-06-12T07:26:11.284Z,94.25
2018-06-12T07:27:11.290Z,94.40
2018-06-12T07:28:11.292Z,94.40
2018-06-12T07:29:11.298Z,94.20
2018-06-12T07:30:11.326Z,94.78
2018-06-12T07:31:11.305Z,93.96
2018-06-12T07:32:11.318Z,93.87
2018-06-12T07:33:11.314Z,94.45
2018-06-12T07:34:11.318Z,94.54
2018-06-12T07:35:11.323Z,93.87
2018-06-12T07:36:11.326Z,94.35
2018-06-12T07:37:11.331Z,94.68
2018-06-12T07:38:11.334Z,94.30
2018-06-12T07:39:11.342Z,93.91
2018-06-12T07:40:11.343Z,94.30
2018-06-12T07:41:11.347Z,93.91
2018-06-12T07:42:11.352Z,94.10
2018-06-12T07:43:11.356Z,93.72
2018-06-12T07:44:11.655Z,93.62
2018-06-12T07:45:11.365Z,93.33
2018-06-12T07:46:11.368Z,93.72
2018-06-12T07:47:11.373Z,93.33
2018-06-12T07:48:11.378Z,94.10
2018-06-12T07:49:11.382Z,93.43
2018-06-12T07:50:11.385Z,94.10
2018-06-12T07:51:11.390Z,93.15
2018-06-12T07:52:11.395Z,94.01
2018-06-12T07:53:11.402Z,92.95
2018-06-12T07:54:11.404Z,93.62
2018-06-12T07:55:11.409Z,93.15
2018-06-12T07:56:11.411Z,93.29
2018-06-12T07:57:11.416Z,93.53
2018-06-12T07:58:11.423Z,93.19
2018-06-12T07:59:11.424Z,93.24
2018-06-12T08:00:11.429Z,93.43
2018-06-12T08:01:11.434Z,93.24
2018-06-12T08:02:11.437Z,94.10
2018-06-12T08:03:11.442Z,93.53
2018-06-12T08:04:11.448Z,93.91
2018-06-12T08:05:11.452Z,94.10
2018-06-12T08:06:11.633Z,93.48
2018-06-12T08:07:11.460Z,93.48
2018-06-12T08:08:11.464Z,93.09
2018-06-12T08:09:11.468Z,92.03
2018-06-12T08:10:11.473Z,92.42
2018-06-12T08:11:11.480Z,92.90
2018-06-12T08:12:11.480Z,93.00
2018-06-12T08:13:11.487Z,93.29
2018-06-12T08:14:11.490Z,93.09
2018-06-12T08:15:11.494Z,92.66
2018-06-12T08:16:11.500Z,91.99
2018-06-12T08:17:11.504Z,91.69
2018-06-12T08:18:11.507Z,91.55
2018-06-12T08:19:11.515Z,90.39
2018-06-12T08:20:11.520Z,90.10
2018-06-12T08:21:11.525Z,91.45
2018-06-12T08:22:11.530Z,90.19
2018-06-12T08:23:11.537Z,89.12
2018-06-12T08:24:11.543Z,89.79
2018-06-12T08:25:11.549Z,88.83
2018-06-12T08:26:11.557Z,86.86
2018-06-12T08:27:11.562Z,87.59
2018-06-12T08:28:11.570Z,87.78
2018-06-12T08:29:11.579Z,88.70
2018-06-12T08:30:11.607Z,88.07
2018-06-12T08:31:11.595Z,87.92
2018-06-12T08:32:11.598Z,87.40
2018-06-12T08:33:11.607Z,88.89
2018-06-12T08:34:11.614Z,89.67
2018-06-12T08:35:11.621Z,88.93
2018-06-12T08:36:11.633Z,88.31
2018-06-12T08:37:11.637Z,88.89
2018-06-12T08:38:11.643Z,88.65
2018-06-12T08:39:11.651Z,89.09
2018-06-12T08:40:11.660Z,89.28
2018-06-12T08:41:11.669Z,89.76
2018-06-12T08:42:11.676Z,90.72
2018-06-12T08:43:11.682Z,90.44
2018-06-12T08:44:11.689Z,89.76
2018-06-12T08:45:11.696Z,89.72
2018-06-12T08:46:11.705Z,89.62
2018-06-12T08:47:11.716Z,90.39
2018-06-12T08:48:11.716Z,89.72
2018-06-12T08:49:11.723Z,90.00
2018-06-12T08:50:11.730Z,90.48
2018-06-12T08:51:11.735Z,90.48
2018-06-12T08:52:11.741Z,91.02
2018-06-12T08:53:11.747Z,91.50
2018-06-12T08:54:11.752Z,91.45
2018-06-12T08:55:11.761Z,91.99
2018-06-12T08:56:11.766Z,91.50
2018-06-12T08:57:11.770Z,92.08
2018-06-12T08:58:11.777Z,91.99
2018-06-12T08:59:11.781Z,92.76
2018-06-12T09:00:11.787Z,93.14
2018-06-12T09:01:11.792Z,93.14
2018-06-12T09:02:11.796Z,94.20
2018-06-12T09:03:11.802Z,93.62
2018-06-12T09:04:11.806Z,94.20
2018-06-12T09:05:11.812Z,93.52
2018-06-12T09:06:11.851Z,94.29
2018-06-12T09:07:11.822Z,94.10
2018-06-12T09:08:11.827Z,92.94
2018-06-12T09:09:11.832Z,93.48
2018-06-12T09:10:11.835Z,93.09
2018-06-12T09:11:11.842Z,92.71
2018-06-12T09:12:11.851Z,93.72
2018-06-12T09:13:11.853Z,93.91
2018-06-12T09:14:11.856Z,93.33
2018-06-12T09:15:11.859Z,93.91
2018-06-12T09:16:11.864Z,93.43
2018-06-12T09:17:11.870Z,93.91
2018-06-12T09:18:11.874Z,93.43
2018-06-12T09:19:11.879Z,94.30
2018-06-12T09:20:11.883Z,93.91
2018-06-12T09:21:11.888Z,93.33
2018-06-12T09:22:11.890Z,93.72
2018-06-12T09:23:11.896Z,93.91
2018-06-12T09:24:11.899Z,93.72
2018-06-12T09:25:11.938Z,93.91
2018-06-12T09:26:11.908Z,93.72
2018-06-12T09:27:11.917Z,93.43
2018-06-12T09:28:11.921Z,93.62
2018-06-12T09:29:11.922Z,93.53
2018-06-12T09:30:11.924Z,93.62
2018-06-12T09:31:11.929Z,93.53
2018-06-12T09:32:11.933Z,94.10
2018-06-12T09:33:11.937Z,93.72
2018-06-12T09:34:11.940Z,93.82
2018-06-12T09:35:11.946Z,93.62
2018-06-12T09:36:11.950Z,94.10
2018-06-12T09:37:11.954Z,93.53
2018-06-12T09:38:11.957Z,94.01
2018-06-12T09:39:11.962Z,94.01
2018-06-12T09:40:11.966Z,93.53
2018-06-12T09:41:12.199Z,94.10
2018-06-12T09:42:12.013Z,94.10
2018-06-12T09:43:11.981Z,93.53
2018-06-12T09:44:11.983Z,92.85
2018-06-12T09:45:11.986Z,94.01
2018-06-12T09:46:11.996Z,94.25
2018-06-12T09:47:11.994Z,93.62
2018-06-12T09:48:12.003Z,93.72
2018-06-12T09:49:12.003Z,93.57
2018-06-12T09:50:12.007Z,94.15
2018-06-12T09:51:12.011Z,94.01
2018-06-12T09:52:12.021Z,94.29
2018-06-12T09:53:12.038Z,93.91
2018-06-12T09:54:12.024Z,93.29
2018-06-12T09:55:12.028Z,93.77
2018-06-12T09:56:12.033Z,93.48
2018-06-12T09:57:12.039Z,93.00
2018-06-12T09:58:12.042Z,93.19
2018-06-12T09:59:12.069Z,93.09
2018-06-12T10:00:12.070Z,93.09
2018-06-12T10:01:12.092Z,93.00
2018-06-12T10:02:12.060Z,92.42
2018-06-12T10:03:12.065Z,92.71
2018-06-12T10:04:12.069Z,92.42
2018-06-12T10:05:12.178Z,92.61
2018-06-12T10:06:12.144Z,92.22
2018-06-12T10:07:12.082Z,92.47
2018-06-12T10:08:12.088Z,90.83
2018-06-12T10:09:12.352Z,91.60
2018-06-12T10:10:12.099Z,91.69
2018-06-12T10:11:12.186Z,91.60
2018-06-12T10:12:12.107Z,91.74
2018-06-12T10:13:12.114Z,91.26
2018-06-12T10:14:12.117Z,91.45
2018-06-12T10:15:12.123Z,91.26
2018-06-12T10:16:12.129Z,91.83
2018-06-12T10:17:12.133Z,92.56
2018-06-12T10:18:12.138Z,91.21
2018-06-12T10:19:12.144Z,91.02
2018-06-12T10:20:12.149Z,91.31
2018-06-12T10:21:12.154Z,92.18
2018-06-12T10:22:12.157Z,91.79
2018-06-12T10:23:12.163Z,91.69
2018-06-12T10:24:12.168Z,91.79
2018-06-12T10:25:12.174Z,92.08
2018-06-12T10:26:12.180Z,92.18
2018-06-12T10:27:12.183Z,91.99
2018-06-12T10:28:12.189Z,92.03
2018-06-12T10:29:12.193Z,91.55
2018-06-12T10:30:12.199Z,91.46
2018-06-12T10:31:12.202Z,90.64
2018-06-12T10:32:12.208Z,91.02
2018-06-12T10:33:12.213Z,90.00
2018-06-12T10:34:12.216Z,90.68
2018-06-12T10:35:12.223Z,90.78
2018-06-12T10:36:12.228Z,90.68
2018-06-12T10:37:12.275Z,90.30
2018-06-12T10:38:12.238Z,90.05
2018-06-12T10:39:12.243Z,89.95
2018-06-12T10:40:12.249Z,89.95
2018-06-12T10:41:12.255Z,88.93
2018-06-12T10:42:12.263Z,89.71
2018-06-12T10:43:12.266Z,88.69
2018-06-12T10:44:12.272Z,88.02
2018-06-12T10:45:12.282Z,88.31
2018-06-12T10:46:12.285Z,87.63
2018-06-12T10:47:12.291Z,86.76
2018-06-12T10:48:12.297Z,88.93
2018-06-12T10:49:12.304Z,88.29
2018-06-12T10:50:12.311Z,85.40
2018-06-12T10:51:12.347Z,85.30
2018-06-12T10:52:12.326Z,87.13
2018-06-12T10:53:12.332Z,86.17
2018-06-12T10:54:12.361Z,87.85
2018-06-12T10:55:12.347Z,87.23
2018-06-12T10:56:12.375Z,84.08
2018-06-12T10:57:12.365Z,85.14
2018-06-12T10:58:12.370Z,83.98
2018-06-12T10:59:12.378Z,82.23
2018-06-12T11:00:12.387Z,81.90
2018-06-12T11:01:12.395Z,82.25
2018-06-12T11:02:12.403Z,82.73
2018-06-12T11:03:12.410Z,82.69
2018-06-12T11:04:12.449Z,83.95
2018-06-12T11:05:12.428Z,83.85
2018-06-12T11:06:12.434Z,84.82
2018-06-12T11:07:12.444Z,84.53
2018-06-12T11:08:12.453Z,82.83
2018-06-12T11:09:12.459Z,83.31
2018-06-12T11:10:12.467Z,81.32
2018-06-12T11:11:12.476Z,80.74
2018-06-12T11:12:12.484Z,84.22
2018-06-12T11:13:12.493Z,84.95
2018-06-12T11:14:12.500Z,85.48
2018-06-12T11:15:12.533Z,83.61
2018-06-12T11:16:12.524Z,84.57
2018-06-12T11:17:12.525Z,82.64
2018-06-12T11:18:12.533Z,83.47
2018-06-12T11:19:12.542Z,82.98
2018-06-12T11:20:12.547Z,82.94
2018-06-12T11:21:12.556Z,84.30
2018-06-12T11:22:12.563Z,84.64
2018-06-12T11:23:12.570Z,85.12
2018-06-12T11:24:12.576Z,86.14
2018-06-12T11:25:12.585Z,87.78
2018-06-12T11:26:12.590Z,87.88
2018-06-12T11:27:12.730Z,88.02
2018-06-12T11:28:12.605Z,88.41
2018-06-12T11:29:12.834Z,88.22
2018-06-12T11:30:12.616Z,88.02
2018-06-12T11:31:12.623Z,87.83
2018-06-12T11:32:12.630Z,88.51
2018-06-12T11:33:12.716Z,88.07
2018-06-12T11:34:12.641Z,88.79
2018-06-12T11:35:12.649Z,87.26
2018-06-12T11:36:12.658Z,87.35
2018-06-12T11:37:12.719Z,87.93
2018-06-12T11:38:12.908Z,87.74
2018-06-12T11:39:12.673Z,88.02
2018-06-12T11:40:12.679Z,87.06
2018-06-12T11:41:12.687Z,87.35
2018-06-12T11:42:12.690Z,87.93
2018-06-12T11:43:12.697Z,88.22
2018-06-12T11:44:12.701Z,89.28
2018-06-12T11:45:12.709Z,88.99
2018-06-12T11:46:12.759Z,89.57
2018-06-12T11:47:12.718Z,90.24
2018-06-12T11:48:12.723Z,90.63
2018-06-12T11:49:12.729Z,90.53
2018-06-12T11:50:12.734Z,89.61
2018-06-12T11:51:12.741Z,89.32
2018-06-12T11:52:12.747Z,91.06
2018-06-12T11:53:12.754Z,90.58
2018-06-12T11:54:12.758Z,89.90
2018-06-12T11:55:12.765Z,90.09
2018-06-12T11:56:12.769Z,90.00
2018-06-12T11:57:12.775Z,90.58
2018-06-12T11:58:12.781Z,90.05
2018-06-12T11:59:12.788Z,90.05
2018-06-12T12:00:12.795Z,89.62
2018-06-12T12:01:12.816Z,89.53
2018-06-12T12:02:12.805Z,90.20
2018-06-12T12:03:12.826Z,90.48
2018-06-12T12:04:12.815Z,90.68
2018-06-12T12:05:12.822Z,91.11
2018-06-12T12:06:12.825Z,89.72
2018-06-12T12:07:12.831Z,90.88
2018-06-12T12:08:12.836Z,89.62
2018-06-12T12:09:12.842Z,89.81
2018-06-12T12:10:12.846Z,90.20
2018-06-12T12:11:12.853Z,90.39
2018-06-12T12:12:12.858Z,90.53
2018-06-12T12:13:12.862Z,90.63
2018-06-12T12:14:12.868Z,90.92
2018-06-12T12:15:12.872Z,90.53
2018-06-12T12:16:12.877Z,90.00
2018-06-12T12:17:12.887Z,89.86
2018-06-12T12:18:12.888Z,89.72
2018-06-12T12:19:12.899Z,89.86
2018-06-12T12:20:12.899Z,90.10
2018-06-12T12:21:12.905Z,89.57
2018-06-12T12:22:13.008Z,89.72
2018-06-12T12:23:13.014Z,89.76
2018-06-12T12:24:12.919Z,89.76
2018-06-12T12:25:12.924Z,88.79
2018-06-12T12:26:12.930Z,89.28
2018-06-12T12:27:12.935Z,88.70
2018-06-12T12:28:12.942Z,87.88
2018-06-12T12:29:12.945Z,87.01
2018-06-12T12:30:12.994Z,86.82
2018-06-12T12:31:12.957Z,87.20
2018-06-12T12:32:12.961Z,85.94
2018-06-12T12:33:12.968Z,85.85
2018-06-12T12:34:12.971Z,86.04
2018-06-12T12:35:12.977Z,85.46
2018-06-12T12:36:12.984Z,85.46
2018-06-12T12:37:12.989Z,86.00
2018-06-12T12:38:12.995Z,85.61
2018-06-12T12:39:12.998Z,84.84
2018-06-12T12:40:13.004Z,85.81
2018-06-12T12:41:13.013Z,86.10
2018-06-12T12:42:13.014Z,87.06
2018-06-12T12:43:13.024Z,87.21
2018-06-12T12:44:13.026Z,87.79
2018-06-12T12:45:13.031Z,87.79
2018-06-12T12:46:13.234Z,88.27
2018-06-12T12:47:13.039Z,88.46
2018-06-12T12:48:13.048Z,89.14
2018-06-12T12:49:13.050Z,88.95
2018-06-12T12:50:13.055Z,88.56
2018-06-12T12:51:13.061Z,88.46
2018-06-12T12:52:13.066Z,88.46
2018-06-12T12:53:13.069Z,88.65